D/T METAR WX W/DIR W/SPE G/SPE TEMP DEWP
16/01/19 03:50 EGKK 160350Z 21010KT 7000 -DZ BKN008 08/07 Q1011 -DZ SSW (210°) 11.5mph 8°C 7°C
16/01/19 03:20 EGKK 160320Z 22010KT 9999 BKN011 08/07 Q1011 SW (220°) 11.5mph 8°C 7°C
16/01/19 02:50 EGKK 160250Z 22009KT 5000 -DZ FEW006 BKN012 08/07 Q1012 -DZ SW (220°) 10.4mph 8°C 7°C
16/01/19 02:20 EGKK 160220Z 22009KT 9999 FEW007 BKN012 08/07 Q1012 SW (220°) 10.4mph 8°C 7°C
16/01/19 01:50 EGKK 160150Z 22010KT 9999 FEW006 BKN009 08/07 Q1012 RERA REDZ SW (220°) 11.5mph 8°C 7°C
16/01/19 01:20 EGKK 160120Z 22009KT 4500 DZRA BKN006 08/07 Q1013 DZ RA SW (220°) 10.4mph 8°C 7°C
16/01/19 00:50 EGKK 160050Z 22008KT 9999 FEW007 SCT017 BKN033 08/07 Q1013 SW (220°) 9.2mph 8°C 7°C
16/01/19 00:20 EGKK 160020Z 22007KT 9999 SCT006 BKN033 08/07 Q1014 SW (220°) 8.1mph 8°C 7°C
15/01/19 23:50 EGKK 152350Z 22009KT 9999 BKN006 BKN034 08/07 Q1014 SW (220°) 10.4mph 8°C 7°C
15/01/19 23:20 EGKK 152320Z 22007KT 9999 BKN006 BKN013 08/07 Q1014 SW (220°) 8.1mph 8°C 7°C
15/01/19 22:50 EGKK 152250Z 22008KT 190V250 9999 SCT007 BKN028 08/07 Q1015 SW (220°) 9.2mph 8°C 7°C
15/01/19 22:20 EGKK 152220Z 21007KT 9999 FEW009 BKN028 08/06 Q1015 SSW (210°) 8.1mph 8°C 6°C
15/01/19 21:50 EGKK 152150Z 21008KT 170V240 9999 FEW010 BKN031 08/07 Q1015 SSW (210°) 9.2mph 8°C 7°C
15/01/19 21:20 EGKK 152120Z 22009KT 9999 BKN027 08/06 Q1016 SW (220°) 10.4mph 8°C 6°C
15/01/19 20:50 EGKK 152050Z 21007KT 9999 FEW012 BKN027 08/06 Q1016 SSW (210°) 8.1mph 8°C 6°C
15/01/19 20:20 EGKK 152020Z 22006KT 180V250 9999 FEW020 BKN025 08/05 Q1016 SW (220°) 6.9mph 8°C 5°C
15/01/19 19:50 EGKK 151950Z 23007KT 9999 BKN027 09/05 Q1016 SW (230°) 8.1mph 9°C 5°C
15/01/19 19:20 EGKK 151920Z 23010KT 9999 BKN028 09/05 Q1017 SW (230°) 11.5mph 9°C 5°C
15/01/19 18:50 EGKK 151850Z 22008KT 9999 BKN029 09/06 Q1017 SW (220°) 9.2mph 9°C 6°C
15/01/19 18:20 EGKK 151820Z 22008KT 9999 BKN029 09/06 Q1017 SW (220°) 9.2mph 9°C 6°C
15/01/19 17:50 EGKK 151750Z 22007KT 9999 BKN031 09/06 Q1017 SW (220°) 8.1mph 9°C 6°C
15/01/19 17:20 EGKK 151720Z 22007KT 9999 BKN030 09/05 Q1017 SW (220°) 8.1mph 9°C 5°C
15/01/19 16:50 EGKK 151650Z 22008KT 9999 BKN031 09/06 Q1017 SW (220°) 9.2mph 9°C 6°C
15/01/19 16:20 EGKK 151620Z 22007KT 9999 BKN029 09/06 Q1018 SW (220°) 8.1mph 9°C 6°C
15/01/19 15:50 EGKK 151550Z 22007KT 9999 BKN023 09/06 Q1018 SW (220°) 8.1mph 9°C 6°C
15/01/19 15:20 EGKK 151520Z 23006KT 9999 BKN022 BKN027 09/06 Q1018 SW (230°) 6.9mph 9°C 6°C
15/01/19 14:50 EGKK 151450Z 24007KT 9999 BKN017 BKN023 09/06 Q1018 WSW (240°) 8.1mph 9°C 6°C
15/01/19 14:20 EGKK 151420Z 24009KT 9999 BKN018 BKN023 09/06 Q1018 WSW (240°) 10.4mph 9°C 6°C
15/01/19 13:50 EGKK 151350Z 23008KT 9999 BKN023 09/06 Q1019 SW (230°) 9.2mph 9°C 6°C
15/01/19 13:20 EGKK 151320Z 24010KT 9999 FEW013 BKN025 09/06 Q1019 WSW (240°) 11.5mph 9°C 6°C
15/01/19 12:50 EGKK 151250Z 24010KT 9999 SCT015 BKN020 09/06 Q1019 WSW (240°) 11.5mph 9°C 6°C
15/01/19 12:20 EGKK 151220Z 24011KT 9999 FEW016 BKN027 08/06 Q1020 WSW (240°) 12.7mph 8°C 6°C
15/01/19 11:50 EGKK 151150Z 24010KT 9999 FEW012 BKN030 08/06 Q1020 WSW (240°) 11.5mph 8°C 6°C
15/01/19 11:20 EGKK 151120Z 23010KT 9999 FEW011 BKN032 08/06 Q1020 SW (230°) 11.5mph 8°C 6°C
15/01/19 10:50 EGKK 151050Z 22008KT 9999 FEW010 BKN027 07/05 Q1021 SW (220°) 9.2mph 7°C 5°C
15/01/19 10:20 EGKK 151020Z 23007KT 9999 FEW010 BKN025 06/05 Q1021 SW (230°) 8.1mph 6°C 5°C
15/01/19 09:50 EGKK 150950Z 23007KT 9999 BKN027 06/04 Q1021 SW (230°) 8.1mph 6°C 4°C
15/01/19 09:20 EGKK 150920Z 23007KT 9999 BKN026 06/04 Q1021 SW (230°) 8.1mph 6°C 4°C
15/01/19 08:50 EGKK 150850Z 22007KT 9999 BKN027 06/04 Q1021 SW (220°) 8.1mph 6°C 4°C
15/01/19 08:20 EGKK 150820Z 23008KT 9999 BKN026 05/03 Q1021 SW (230°) 9.2mph 5°C 3°C
15/01/19 07:50 EGKK 150750Z 23005KT 9999 BKN028 04/03 Q1021 SW (230°) 5.8mph 4°C 3°C
15/01/19 07:20 EGKK 150720Z 23006KT 9999 SCT024 BKN029 04/02 Q1021 SW (230°) 6.9mph 4°C 2°C
15/01/19 06:50 EGKK 150650Z 23006KT 9999 BKN029 04/02 Q1021 SW (230°) 6.9mph 4°C 2°C
15/01/19 06:20 EGKK 150620Z 23006KT 9999 BKN029 03/02 Q1021 SW (230°) 6.9mph 3°C 2°C
15/01/19 05:50 EGKK 150550Z 23004KT 9999 SCT034 03/02 Q1021 SW (230°) 4.6mph 3°C 2°C
15/01/19 05:20 EGKK 150520Z 21005KT CAVOK 02/01 Q1021 SSW (210°) 5.8mph 2°C 1°C
15/01/19 04:50 EGKK 150450Z 21003KT CAVOK 02/01 Q1022 SSW (210°) 3.5mph 2°C 1°C
15/01/19 04:20 EGKK 150420Z 22003KT CAVOK 02/01 Q1022 SW (220°) 3.5mph 2°C 1°C
15/01/19 03:50 EGKK 150350Z 22006KT CAVOK 03/01 Q1022 SW (220°) 6.9mph 3°C 1°C
15/01/19 03:20 EGKK 150320Z 21006KT CAVOK 03/01 Q1022 SSW (210°) 6.9mph 3°C 1°C
15/01/19 02:50 EGKK 150250Z 22005KT CAVOK 03/01 Q1023 SW (220°) 5.8mph 3°C 1°C
15/01/19 01:50 EGKK 150150Z 24005KT CAVOK 03/01 Q1023 WSW (240°) 5.8mph 3°C 1°C
15/01/19 01:20 EGKK 150120Z 23005KT CAVOK 03/01 Q1023 SW (230°) 5.8mph 3°C 1°C
15/01/19 00:50 EGKK 150050Z 21004KT CAVOK 03/01 Q1023 SSW (210°) 4.6mph 3°C 1°C
15/01/19 00:20 EGKK 150020Z 23005KT CAVOK 04/01 Q1023 SW (230°) 5.8mph 4°C 1°C
14/01/19 23:50 EGKK 142350Z 24005KT CAVOK 05/01 Q1023 WSW (240°) 5.8mph 5°C 1°C
14/01/19 23:20 EGKK 142320Z 24007KT CAVOK 05/01 Q1023 WSW (240°) 8.1mph 5°C 1°C
14/01/19 22:50 EGKK 142250Z 24004KT CAVOK 04/00 Q1023 WSW (240°) 4.6mph 4°C 0°C
14/01/19 22:20 EGKK 142220Z 24005KT CAVOK 05/01 Q1023 WSW (240°) 5.8mph 5°C 1°C
14/01/19 21:50 EGKK 142150Z 25007KT CAVOK 04/00 Q1023 WSW (250°) 8.1mph 4°C 0°C
14/01/19 21:20 EGKK 142120Z 25006KT CAVOK 06/01 Q1023 WSW (250°) 6.9mph 6°C 1°C
14/01/19 20:50 EGKK 142050Z 23003KT 9999 BKN048 07/02 Q1023 SW (230°) 3.5mph 7°C 2°C
14/01/19 20:20 EGKK 142020Z 25006KT 9999 BKN046 07/02 Q1023 WSW (250°) 6.9mph 7°C 2°C
14/01/19 19:50 EGKK 141950Z 25006KT 9999 BKN046 07/02 Q1023 WSW (250°) 6.9mph 7°C 2°C
14/01/19 19:20 EGKK 141920Z 24004KT 9999 BKN047 07/03 Q1023 WSW (240°) 4.6mph 7°C 3°C
14/01/19 18:50 EGKK 141850Z 24004KT 9999 BKN048 07/03 Q1023 WSW (240°) 4.6mph 7°C 3°C
14/01/19 18:20 EGKK 141820Z 27004KT 9999 BKN049 08/03 Q1023 W (270°) 4.6mph 8°C 3°C
14/01/19 17:20 EGKK 141720Z 30007KT 9999 BKN048 08/03 Q1023 WNW (300°) 8.1mph 8°C 3°C
14/01/19 16:50 EGKK 141650Z 30008KT 9999 BKN048 08/03 Q1023 WNW (300°) 9.2mph 8°C 3°C
14/01/19 16:20 EGKK 141620Z 30007KT 9999 BKN045 09/03 Q1022 WNW (300°) 8.1mph 9°C 3°C
14/01/19 15:20 EGKK 141520Z 30008KT 9999 BKN045 09/03 Q1022 WNW (300°) 9.2mph 9°C 3°C
14/01/19 14:50 EGKK 141450Z 31010KT 9999 BKN041 09/02 Q1021 NW (310°) 11.5mph 9°C 2°C
14/01/19 14:20 EGKK 141420Z 31009KT 9999 BKN042 09/03 Q1021 NW (310°) 10.4mph 9°C 3°C
14/01/19 13:20 EGKK 141320Z 32009KT 9999 FEW026 BKN038 09/03 Q1021 NW (320°) 10.4mph 9°C 3°C
14/01/19 12:50 EGKK 141250Z 31011KT 280V340 9999 FEW027 BKN042 09/03 Q1021 NW (310°) 12.7mph 9°C 3°C
14/01/19 12:20 EGKK 141220Z 31012KT 9999 FEW028 BKN043 09/03 Q1021 NW (310°) 13.8mph 9°C 3°C
14/01/19 11:50 EGKK 141150Z 31011KT 9999 FEW024 SCT030 BKN036 08/03 Q1021 NW (310°) 12.7mph 8°C 3°C
14/01/19 11:20 EGKK 141120Z 31011KT 9999 FEW023 SCT029 BKN038 08/03 Q1021 NW (310°) 12.7mph 8°C 3°C
14/01/19 10:50 EGKK 141050Z 30011KT 9999 FEW024 SCT030 08/03 Q1021 WNW (300°) 12.7mph 8°C 3°C
14/01/19 10:20 EGKK 141020Z 29011KT 9999 SCT025 08/03 Q1021 WNW (290°) 12.7mph 8°C 3°C
14/01/19 09:50 EGKK 140950Z 31012KT 9999 FEW026 BKN031 08/03 Q1020 NW (310°) 13.8mph 8°C 3°C
14/01/19 09:20 EGKK 140920Z 30012KT 9999 BKN027 08/03 Q1020 WNW (300°) 13.8mph 8°C 3°C
14/01/19 08:50 EGKK 140850Z 31012KT 9999 BKN027 07/03 Q1020 NW (310°) 13.8mph 7°C 3°C
14/01/19 08:20 EGKK 140820Z 29008KT 9999 BKN029 07/03 Q1020 WNW (290°) 9.2mph 7°C 3°C
14/01/19 07:50 EGKK 140750Z 30008KT 9999 BKN030 07/02 Q1019 WNW (300°) 9.2mph 7°C 2°C
14/01/19 07:20 EGKK 140720Z 31009KT 9999 BKN031 07/02 Q1018 NW (310°) 10.4mph 7°C 2°C
14/01/19 06:50 EGKK 140650Z 31010KT 9999 SCT031 07/02 Q1018 NW (310°) 11.5mph 7°C 2°C
14/01/19 06:20 EGKK 140620Z 29009KT CAVOK 07/02 Q1018 WNW (290°) 10.4mph 7°C 2°C
14/01/19 05:50 EGKK 140550Z 30011KT 9999 FEW039 07/02 Q1018 WNW (300°) 12.7mph 7°C 2°C
14/01/19 05:20 EGKK 140520Z 29009KT 9999 SCT038 07/02 Q1018 WNW (290°) 10.4mph 7°C 2°C
14/01/19 04:50 EGKK 140450Z 30009KT 9999 SCT039 08/02 Q1017 WNW (300°) 10.4mph 8°C 2°C
14/01/19 04:20 EGKK 140420Z 29009KT 9999 BKN035 08/02 Q1017 WNW (290°) 10.4mph 8°C 2°C
14/01/19 03:50 EGKK 140350Z 29007KT 9999 BKN037 08/02 Q1017 WNW (290°) 8.1mph 8°C 2°C
14/01/19 03:20 EGKK 140320Z 29006KT 270V340 9999 SCT036 07/02 Q1016 WNW (290°) 6.9mph 7°C 2°C
14/01/19 02:50 EGKK 140250Z 31008KT 9999 SCT038 08/02 Q1016 NW (310°) 9.2mph 8°C 2°C
14/01/19 02:20 EGKK 140220Z 31009KT 9999 FEW041 08/02 Q1016 NW (310°) 10.4mph 8°C 2°C
14/01/19 01:20 EGKK 140120Z 30011KT CAVOK 08/02 Q1015 WNW (300°) 12.7mph 8°C 2°C
14/01/19 00:50 EGKK 140050Z 30013KT CAVOK 08/02 Q1015 WNW (300°) 15.0mph 8°C 2°C
13/01/19 23:50 EGKK 132350Z 32013KT 9999 FEW038 09/02 Q1015 NW (320°) 15.0mph 9°C 2°C
13/01/19 23:20 EGKK 132320Z 30009KT 9999 FEW040 SCT048 09/03 Q1014 WNW (300°) 10.4mph 9°C 3°C
13/01/19 22:20 EGKK 132220Z 32010KT CAVOK 09/02 Q1014 NW (320°) 11.5mph 9°C 2°C
13/01/19 21:50 EGKK 132150Z 33015KT 9999 FEW047 10/02 Q1014 NNW (330°) 17.3mph 10°C 2°C
13/01/19 21:20 EGKK 132120Z 32019G29KT 9999 FEW037 BKN047 11/03 Q1013 NW (320°) 21.9mph 33.4mph 11°C 3°C
13/01/19 20:50 EGKK 132050Z 32014KT 280V350 9999 SCT029 BKN041 11/05 Q1013 NW (320°) 16.1mph 11°C 5°C
13/01/19 20:20 EGKK 132020Z 30013KT 9999 FEW032 BKN043 11/07 Q1012 WNW (300°) 15.0mph 11°C 7°C
13/01/19 19:50 EGKK 131950Z 28009KT 9999 FEW031 BKN045 10/07 Q1012 W (280°) 10.4mph 10°C 7°C
13/01/19 19:20 EGKK 131920Z 26010KT 9999 FEW020 BKN044 10/08 Q1012 W (260°) 11.5mph 10°C 8°C
13/01/19 18:50 EGKK 131850Z 27013KT 9999 FEW022 BKN044 10/08 Q1012 W (270°) 15.0mph 10°C 8°C
13/01/19 18:20 EGKK 131820Z 25011KT 9999 FEW020 BKN026 10/08 Q1011 WSW (250°) 12.7mph 10°C 8°C
13/01/19 17:50 EGKK 131750Z 25012KT 9999 FEW021 SCT036 10/08 Q1011 WSW (250°) 13.8mph 10°C 8°C
13/01/19 17:20 EGKK 131720Z 26013KT 9999 SCT017 10/08 Q1012 W (260°) 15.0mph 10°C 8°C
13/01/19 16:20 EGKK 131620Z 26016KT 9999 SCT014 BKN037 10/08 Q1012 W (260°) 18.4mph 10°C 8°C
13/01/19 15:50 EGKK 131550Z 26019KT 9999 BKN015 11/08 Q1012 W (260°) 21.9mph 11°C 8°C
13/01/19 14:50 EGKK 131450Z 26018KT 9999 BKN017 11/08 Q1012 W (260°) 20.7mph 11°C 8°C
13/01/19 14:20 EGKK 131420Z 28016KT 9999 SCT018 12/08 Q1012 W (280°) 18.4mph 12°C 8°C
13/01/19 13:50 EGKK 131350Z 27016KT 9999 SCT019 12/08 Q1012 W (270°) 18.4mph 12°C 8°C
13/01/19 13:20 EGKK 131320Z 26015G27KT 9999 FEW019 12/08 Q1012 W (260°) 17.3mph 31.1mph 12°C 8°C
13/01/19 12:50 EGKK 131250Z 26017KT 9999 SCT019 12/08 Q1013 W (260°) 19.6mph 12°C 8°C
13/01/19 12:20 EGKK 131220Z 26015KT 9999 SCT020 11/08 Q1013 W (260°) 17.3mph 11°C 8°C
13/01/19 11:50 EGKK 131150Z 26014KT 9999 FEW021 11/07 Q1013 W (260°) 16.1mph 11°C 7°C
13/01/19 11:20 EGKK 131120Z 27012KT CAVOK 10/07 Q1014 W (270°) 13.8mph 10°C 7°C
13/01/19 10:50 EGKK 131050Z 28013KT CAVOK 10/07 Q1014 W (280°) 15.0mph 10°C 7°C
13/01/19 10:20 EGKK 131020Z 27014KT CAVOK 10/06 Q1014 W (270°) 16.1mph 10°C 6°C
13/01/19 09:50 EGKK 130950Z 27013KT CAVOK 10/07 Q1015 W (270°) 15.0mph 10°C 7°C
13/01/19 09:20 EGKK 130920Z 27008KT 230V300 CAVOK 10/07 Q1015 W (270°) 9.2mph 10°C 7°C
13/01/19 08:50 EGKK 130850Z 28012KT CAVOK 10/07 Q1015 W (280°) 13.8mph 10°C 7°C
13/01/19 08:20 EGKK 130820Z 26012KT CAVOK 10/07 Q1015 W (260°) 13.8mph 10°C 7°C
13/01/19 07:50 EGKK 130750Z 26011KT 9999 FEW018 10/08 Q1015 W (260°) 12.7mph 10°C 8°C
13/01/19 07:20 EGKK 130720Z 26012KT CAVOK 10/08 Q1015 W (260°) 13.8mph 10°C 8°C
13/01/19 06:50 EGKK 130650Z 26012KT 9999 SCT014 10/08 Q1015 W (260°) 13.8mph 10°C 8°C
13/01/19 06:20 EGKK 130620Z 26010KT 9999 SCT016 10/08 Q1016 W (260°) 11.5mph 10°C 8°C
13/01/19 05:50 EGKK 130550Z 26011KT 9999 SCT016 10/08 Q1016 W (260°) 12.7mph 10°C 8°C
13/01/19 05:20 EGKK 130520Z 26010KT 9999 BKN016 10/08 Q1016 W (260°) 11.5mph 10°C 8°C
13/01/19 04:20 EGKK 130420Z 25011KT 9999 SCT016 10/08 Q1017 WSW (250°) 12.7mph 10°C 8°C
13/01/19 03:50 EGKK 130350Z 26010KT 9999 FEW014 SCT022 09/07 Q1017 W (260°) 11.5mph 9°C 7°C
13/01/19 03:20 EGKK 130320Z 27011KT 9999 SCT021 09/07 Q1017 W (270°) 12.7mph 9°C 7°C
13/01/19 02:50 EGKK 130250Z 26011KT 9999 SCT017 09/07 Q1017 W (260°) 12.7mph 9°C 7°C
13/01/19 02:20 EGKK 130220Z 25006KT 9999 SCT018 08/07 Q1018 WSW (250°) 6.9mph 8°C 7°C
13/01/19 01:50 EGKK 130150Z 25008KT 9999 FEW022 09/07 Q1018 WSW (250°) 9.2mph 9°C 7°C
13/01/19 01:20 EGKK 130120Z 27009KT 9999 FEW023 09/07 Q1018 W (270°) 10.4mph 9°C 7°C
13/01/19 00:50 EGKK 130050Z 27009KT 9999 FEW027 08/07 Q1018 W (270°) 10.4mph 8°C 7°C
12/01/19 23:50 EGKK 122350Z 26010KT 9999 FEW020 09/07 Q1019 W (260°) 11.5mph 9°C 7°C
12/01/19 23:20 EGKK 122320Z 28012KT 9999 SCT025 09/07 Q1019 W (280°) 13.8mph 9°C 7°C
12/01/19 22:50 EGKK 122250Z 28010KT 9999 SCT030 09/07 Q1019 W (280°) 11.5mph 9°C 7°C